createdAt,value
2023-03-29T00:01:06.787Z,98036.20
2023-03-29T00:03:35.090Z,98038.09
2023-03-29T00:06:04.164Z,98037.86
2023-03-29T00:08:38.112Z,98037.77
2023-03-29T00:11:06.348Z,98040.39
2023-03-29T00:13:35.074Z,98036.80
2023-03-29T00:16:03.404Z,98036.92
2023-03-29T00:18:31.458Z,98041.17
2023-03-29T00:21:00.612Z,98044.08
2023-03-29T00:23:29.246Z,98043.61
2023-03-29T00:25:57.627Z,98041.77
2023-03-29T00:28:26.108Z,98042.27
2023-03-29T00:31:10.822Z,98038.48
2023-03-29T00:33:39.906Z,98034.33
2023-03-29T00:36:09.161Z,98033.05
2023-03-29T00:38:38.094Z,98033.90
2023-03-29T00:41:08.067Z,98038.02
2023-03-29T00:43:57.236Z,98037.48
2023-03-29T00:46:27.389Z,98041.63
2023-03-29T00:49:02.003Z,98048.75
2023-03-29T00:51:32.091Z,98052.05
2023-03-29T00:54:03.754Z,98050.88
2023-03-29T00:56:37.283Z,98053.66
2023-03-29T00:59:16.472Z,98054.98
2023-03-29T01:01:54.803Z,98054.50
2023-03-29T01:04:36.361Z,98056.04
2023-03-29T01:07:25.867Z,98056.75
2023-03-29T01:10:27.703Z,98066.34
2023-03-29T01:13:03.897Z,98058.73
2023-03-29T01:15:32.242Z,98068.16
2023-03-29T01:18:02.177Z,98075.14
2023-03-29T01:20:49.190Z,98067.33
2023-03-29T01:23:26.984Z,98066.13
2023-03-29T01:26:19.886Z,98073.23
2023-03-29T01:28:57.988Z,98074.71
2023-03-29T01:31:33.149Z,98073.48
2023-03-29T01:34:09.619Z,98080.26
2023-03-29T01:36:54.916Z,98076.11
2023-03-29T01:39:23.076Z,98080.55
2023-03-29T01:42:02.305Z,98084.28
2023-03-29T01:44:39.849Z,98082.52
2023-03-29T01:47:13.854Z,98085.44
2023-03-29T01:49:50.582Z,98083.23
2023-03-29T01:52:25.575Z,98087.77
2023-03-29T01:55:01.060Z,98087.23
2023-03-29T01:57:33.224Z,98086.71
2023-03-29T02:00:08.250Z,98080.19
2023-03-29T02:02:44.878Z,98084.32
2023-03-29T02:05:15.392Z,98076.41
2023-03-29T02:07:46.077Z,98073.05
2023-03-29T02:10:16.474Z,98088.05
2023-03-29T02:12:44.697Z,98087.41
2023-03-29T02:15:15.954Z,98083.80
2023-03-29T02:17:44.449Z,98087.96
2023-03-29T02:20:20.638Z,98086.47
2023-03-29T02:23:02.261Z,98088.04
2023-03-29T02:25:32.702Z,98089.64
2023-03-29T02:28:01.986Z,98095.48
2023-03-29T02:30:48.550Z,98098.73
2023-03-29T02:33:25.292Z,98100.80
2023-03-29T02:36:05.281Z,98098.48
2023-03-29T02:38:34.916Z,98103.89
2023-03-29T02:41:04.212Z,98104.09
2023-03-29T02:43:34.758Z,98103.57
2023-03-29T02:46:05.276Z,98114.35
2023-03-29T02:48:37.185Z,98112.24
2023-03-29T02:51:33.415Z,98113.66
2023-03-29T02:54:23.516Z,98110.34
2023-03-29T02:57:06.679Z,98117.59
2023-03-29T02:59:35.314Z,98122.32
2023-03-29T03:02:03.486Z,98118.73
2023-03-29T03:04:35.499Z,98114.73
2023-03-29T03:07:07.555Z,98124.71
2023-03-29T03:09:35.853Z,98127.67
2023-03-29T03:12:04.207Z,98129.46
2023-03-29T03:14:32.888Z,98134.84
2023-03-29T03:17:03.904Z,98131.03
2023-03-29T03:19:33.225Z,98136.36
2023-03-29T03:22:01.253Z,98131.54
2023-03-29T03:24:29.583Z,98139.10
2023-03-29T03:26:58.853Z,98135.48
2023-03-29T03:29:28.599Z,98139.61
2023-03-29T03:32:15.486Z,98140.44
2023-03-29T03:34:49.923Z,98143.00
2023-03-29T03:37:18.291Z,98144.10
2023-03-29T03:39:46.880Z,98140.18
2023-03-29T03:42:15.527Z,98147.38
2023-03-29T03:44:44.981Z,98146.42
2023-03-29T03:47:39.648Z,98151.62
2023-03-29T03:50:28.706Z,98156.08
2023-03-29T03:52:57.413Z,98162.31
2023-03-29T03:55:25.838Z,98159.36
2023-03-29T03:58:13.244Z,98163.19
2023-03-29T04:00:42.696Z,98167.14
2023-03-29T04:03:24.289Z,98170.99
2023-03-29T04:05:53.790Z,98172.24
2023-03-29T04:08:22.781Z,98175.48
2023-03-29T04:11:10.728Z,98179.46
2023-03-29T04:13:42.321Z,98183.63
2023-03-29T04:16:26.587Z,98187.45
2023-03-29T04:18:55.009Z,98189.59
2023-03-29T04:21:23.634Z,98191.52
2023-03-29T04:23:51.660Z,98189.95
2023-03-29T04:26:19.827Z,98191.21
2023-03-29T04:28:50.934Z,98195.67
2023-03-29T04:31:24.096Z,98199.02
2023-03-29T04:34:09.840Z,98196.29
2023-03-29T04:36:39.132Z,98201.91
2023-03-29T04:39:11.397Z,98201.86
2023-03-29T04:41:40.502Z,98205.70
2023-03-29T04:44:20.653Z,98205.43
2023-03-29T04:46:49.226Z,98209.85
2023-03-29T04:49:37.986Z,98209.11
2023-03-29T04:52:09.350Z,98204.01
2023-03-29T04:54:38.639Z,98206.08
2023-03-29T04:57:21.088Z,98217.09
2023-03-29T05:00:15.151Z,98215.30
2023-03-29T05:03:13.563Z,98218.33
2023-03-29T05:05:56.220Z,98222.98
2023-03-29T05:08:24.395Z,98217.94
2023-03-29T05:11:10.393Z,98218.65
2023-03-29T05:13:38.652Z,98222.58
2023-03-29T05:16:08.081Z,98218.98
2023-03-29T05:18:37.172Z,98225.63
2023-03-29T05:21:06.552Z,98227.38
2023-03-29T05:23:35.424Z,98231.63
2023-03-29T05:26:09.932Z,98235.72
2023-03-29T05:28:38.845Z,98232.82
2023-03-29T05:31:08.700Z,98226.30
2023-03-29T05:33:38.673Z,98239.86
2023-03-29T05:36:11.234Z,98234.23
2023-03-29T05:38:45.201Z,98233.92
2023-03-29T05:41:16.026Z,98236.36
2023-03-29T05:44:02.986Z,98239.98
2023-03-29T05:46:31.687Z,98229.77
2023-03-29T05:49:02.625Z,98223.14
2023-03-29T05:51:57.008Z,98236.42
2023-03-29T05:54:26.459Z,98242.16
2023-03-29T05:56:54.831Z,98240.77
2023-03-29T05:59:24.565Z,98248.02
2023-03-29T06:01:53.045Z,98252.17
2023-03-29T06:04:22.592Z,98253.44
2023-03-29T06:07:12.749Z,98259.13
2023-03-29T06:09:42.175Z,98259.09
2023-03-29T06:12:10.794Z,98263.05
2023-03-29T06:14:51.220Z,98266.30
2023-03-29T06:17:29.359Z,98265.48
2023-03-29T06:19:58.120Z,98273.92
2023-03-29T06:22:27.932Z,98275.16
2023-03-29T06:24:56.731Z,98278.70
2023-03-29T06:27:28.131Z,98283.21
2023-03-29T06:29:56.949Z,98284.31
2023-03-29T06:32:25.924Z,98285.71
2023-03-29T06:35:02.720Z,98294.38
2023-03-29T06:37:33.958Z,98274.56
2023-03-29T06:40:31.399Z,98307.22
2023-03-29T06:43:00.057Z,98300.21
2023-03-29T06:46:04.651Z,98300.86
2023-03-29T06:48:43.426Z,98308.50
2023-03-29T06:51:11.768Z,98310.21
2023-03-29T06:53:41.156Z,98318.60
2023-03-29T06:56:09.896Z,98318.17
2023-03-29T06:58:45.230Z,98319.95
2023-03-29T07:01:34.997Z,98317.30
2023-03-29T07:04:17.823Z,98304.73
2023-03-29T07:07:07.852Z,98316.23
2023-03-29T07:09:40.024Z,98321.38
2023-03-29T07:12:41.063Z,98318.21
2023-03-29T07:15:09.968Z,98314.84
2023-03-29T07:18:08.475Z,98324.73
2023-03-29T07:20:39.055Z,98322.62
2023-03-29T07:23:11.908Z,98323.93
2023-03-29T07:25:41.103Z,98321.20
2023-03-29T07:28:09.415Z,98321.33
2023-03-29T07:30:37.656Z,98324.10
2023-03-29T07:33:13.464Z,98339.45
2023-03-29T07:35:49.423Z,98341.40
2023-03-29T07:38:18.702Z,98336.56
2023-03-29T07:40:54.658Z,98335.14
2023-03-29T07:43:31.597Z,98339.72
2023-03-29T07:46:05.309Z,98343.13
2023-03-29T07:48:37.225Z,98335.91
2023-03-29T07:51:16.497Z,98330.56
2023-03-29T07:53:53.328Z,98337.34
2023-03-29T07:56:47.727Z,98338.37
2023-03-29T07:59:28.738Z,98344.99
2023-03-29T08:02:06.791Z,98347.10
2023-03-29T08:04:41.308Z,98340.95
2023-03-29T08:07:21.769Z,98337.48
2023-03-29T08:10:10.456Z,98346.38
2023-03-29T08:12:53.934Z,98346.53
2023-03-29T08:15:28.211Z,98340.27
2023-03-29T08:17:56.883Z,98352.23
2023-03-29T08:20:28.233Z,98362.98
2023-03-29T08:22:59.403Z,98366.77
2023-03-29T08:25:47.256Z,98372.62
2023-03-29T08:28:17.069Z,98356.01
2023-03-29T08:30:48.345Z,98356.98
2023-03-29T08:33:17.192Z,98355.84
2023-03-29T08:35:46.533Z,98360.09
2023-03-29T08:38:22.784Z,98369.28
2023-03-29T08:40:51.329Z,98356.25
2023-03-29T08:43:20.497Z,98354.84
2023-03-29T08:46:37.313Z,98352.66
2023-03-29T08:49:20.061Z,98348.95
2023-03-29T08:51:54.264Z,98350.54
2023-03-29T08:54:29.294Z,98344.64
2023-03-29T08:57:31.880Z,98330.75
2023-03-29T09:00:13.415Z,98347.92
2023-03-29T09:02:43.922Z,98342.61
2023-03-29T09:05:25.921Z,98344.77
2023-03-29T09:08:13.840Z,98344.44
2023-03-29T09:11:01.010Z,98353.55
2023-03-29T09:13:43.143Z,98351.67
2023-03-29T09:16:20.552Z,98356.08
2023-03-29T09:18:51.468Z,98363.19
2023-03-29T09:21:49.856Z,98361.14
2023-03-29T09:24:44.556Z,98353.06
2023-03-29T09:27:23.169Z,98368.86
2023-03-29T09:30:00.749Z,98363.77
2023-03-29T09:32:53.880Z,98368.60
2023-03-29T09:35:36.016Z,98362.28
2023-03-29T09:38:09.534Z,98359.52
2023-03-29T09:40:53.440Z,98350.55
2023-03-29T09:43:36.358Z,98345.86
2023-03-29T09:46:17.001Z,98346.93
2023-03-29T09:48:46.579Z,98332.34
2023-03-29T09:51:16.547Z,98337.42
2023-03-29T09:53:45.337Z,98328.38
2023-03-29T09:56:19.751Z,98332.50
2023-03-29T09:58:51.508Z,98329.89
2023-03-29T10:01:20.488Z,98321.71
2023-03-29T10:03:54.345Z,98331.96
2023-03-29T10:06:26.997Z,98343.23
2023-03-29T10:08:59.512Z,98344.85
2023-03-29T10:11:37.065Z,98326.76
2023-03-29T10:14:13.657Z,98336.99
2023-03-29T10:16:47.710Z,98348.73
2023-03-29T10:19:35.878Z,98347.27
2023-03-29T10:22:16.535Z,98345.23
2023-03-29T10:24:51.480Z,98341.14
2023-03-29T10:27:24.236Z,98345.48
2023-03-29T10:29:54.353Z,98341.17
2023-03-29T10:32:23.203Z,98342.06
2023-03-29T10:34:52.284Z,98351.29
2023-03-29T10:37:23.262Z,98344.37
2023-03-29T10:39:52.125Z,98354.48
2023-03-29T10:42:24.396Z,98334.05
2023-03-29T10:44:55.537Z,98335.98
2023-03-29T10:47:24.883Z,98344.77
2023-03-29T10:49:57.073Z,98352.67
2023-03-29T10:52:26.135Z,98349.85
2023-03-29T10:54:56.525Z,98329.70
2023-03-29T10:57:45.173Z,98329.75
2023-03-29T11:00:18.941Z,98351.70
2023-03-29T11:03:06.445Z,98348.05
2023-03-29T11:05:43.259Z,98342.76
2023-03-29T11:08:15.196Z,98347.24
2023-03-29T11:10:55.660Z,98335.08
2023-03-29T11:13:51.778Z,98332.21
2023-03-29T11:16:59.707Z,98338.45
2023-03-29T11:20:00.266Z,98326.05
2023-03-29T11:22:56.751Z,98325.36
2023-03-29T11:25:59.328Z,98312.71
2023-03-29T11:28:28.733Z,98314.61
2023-03-29T11:31:17.501Z,98313.55
2023-03-29T11:34:19.248Z,98308.64
2023-03-29T11:36:50.672Z,98303.46
2023-03-29T11:39:36.998Z,98312.67
2023-03-29T11:42:17.861Z,98310.16
2023-03-29T11:44:48.594Z,98302.56
2023-03-29T11:47:23.187Z,98303.33
2023-03-29T11:49:57.599Z,98311.92
2023-03-29T11:52:32.843Z,98301.44
2023-03-29T11:55:05.276Z,98303.64
2023-03-29T11:57:56.767Z,98301.69
2023-03-29T12:00:31.002Z,98291.92
2023-03-29T12:03:07.697Z,98304.21
2023-03-29T12:06:04.517Z,98303.98
2023-03-29T12:08:42.389Z,98288.46
2023-03-29T12:11:29.420Z,98296.95
2023-03-29T12:14:15.708Z,98302.25
2023-03-29T12:16:57.315Z,98306.55
2023-03-29T12:19:31.674Z,98303.68
2023-03-29T12:22:01.739Z,98310.23
2023-03-29T12:24:32.684Z,98316.16
2023-03-29T12:27:22.508Z,98325.19
2023-03-29T12:30:18.407Z,98313.05
2023-03-29T12:32:56.264Z,98321.23
2023-03-29T12:35:53.309Z,98331.87
2023-03-29T12:38:57.161Z,98325.39
2023-03-29T12:41:48.860Z,98322.36
2023-03-29T12:45:00.362Z,98314.91
2023-03-29T12:47:45.761Z,98321.16
2023-03-29T12:50:28.655Z,98309.50
2023-03-29T12:53:15.095Z,98310.61
2023-03-29T12:55:43.677Z,98326.14
2023-03-29T12:58:30.807Z,98320.88
2023-03-29T13:01:31.567Z,98307.69
2023-03-29T13:03:59.613Z,98303.70
2023-03-29T13:06:27.579Z,98314.86
2023-03-29T13:09:20.792Z,98309.84
2023-03-29T13:12:15.942Z,98310.38
2023-03-29T13:14:49.959Z,98302.08
2023-03-29T13:17:52.911Z,98297.56
2023-03-29T13:20:30.257Z,98293.91
2023-03-29T13:23:14.577Z,98303.31
2023-03-29T13:26:03.057Z,98302.45
2023-03-29T13:28:57.943Z,98310.77
2023-03-29T13:31:26.800Z,98305.59
2023-03-29T13:34:17.871Z,98302.38
2023-03-29T13:36:53.756Z,98297.35
2023-03-29T13:39:24.686Z,98294.96
2023-03-29T13:41:54.653Z,98293.26
2023-03-29T13:44:22.728Z,98298.67
2023-03-29T13:47:22.041Z,98289.85
2023-03-29T13:49:53.603Z,98302.01
2023-03-29T13:52:50.034Z,98298.00
2023-03-29T13:55:24.669Z,98291.50
2023-03-29T13:58:15.964Z,98291.04
2023-03-29T14:00:54.306Z,98295.45
2023-03-29T14:03:29.832Z,98290.48
2023-03-29T14:06:01.265Z,98284.53
2023-03-29T14:08:34.720Z,98277.27
2023-03-29T14:11:07.045Z,98270.19
2023-03-29T14:13:35.622Z,98283.72
2023-03-29T14:16:09.196Z,98283.76
2023-03-29T14:18:41.288Z,98273.28
2023-03-29T14:21:12.681Z,98283.98
2023-03-29T14:23:44.998Z,98275.55
2023-03-29T14:26:19.730Z,98286.10
2023-03-29T14:28:49.643Z,98291.11
2023-03-29T14:31:23.778Z,98300.02
2023-03-29T14:33:53.766Z,98292.58
2023-03-29T14:36:23.367Z,98291.16
2023-03-29T14:38:59.621Z,98289.80
2023-03-29T14:41:32.621Z,98285.04
2023-03-29T14:44:03.047Z,98286.19
2023-03-29T14:46:31.828Z,98287.16
2023-03-29T14:49:02.264Z,98282.55
2023-03-29T14:51:31.364Z,98292.09
2023-03-29T14:54:03.292Z,98286.34
2023-03-29T14:56:33.135Z,98273.05
2023-03-29T14:59:04.169Z,98278.36
2023-03-29T15:01:32.495Z,98285.73
2023-03-29T15:04:09.276Z,98283.33
2023-03-29T15:06:44.079Z,98279.83
2023-03-29T15:09:25.117Z,98274.19
2023-03-29T15:11:58.753Z,98276.10
2023-03-29T15:14:33.878Z,98278.23
2023-03-29T15:17:22.874Z,98282.70
2023-03-29T15:19:59.477Z,98286.09
2023-03-29T15:22:34.619Z,98285.22
2023-03-29T15:25:03.350Z,98280.21
2023-03-29T15:27:44.440Z,98276.02
2023-03-29T15:30:18.270Z,98282.27
2023-03-29T15:32:46.646Z,98282.83
2023-03-29T15:35:25.987Z,98281.48
2023-03-29T15:37:54.227Z,98282.11
2023-03-29T15:40:28.254Z,98284.36
2023-03-29T15:42:56.910Z,98294.31
2023-03-29T15:45:26.082Z,98296.12
2023-03-29T15:47:54.403Z,98300.88
2023-03-29T15:50:23.463Z,98303.73
2023-03-29T15:52:52.907Z,98304.86
2023-03-29T15:55:21.179Z,98296.58
2023-03-29T15:57:52.869Z,98289.02
2023-03-29T16:00:22.493Z,98299.40
2023-03-29T16:02:51.646Z,98301.32
2023-03-29T16:05:20.055Z,98299.23
2023-03-29T16:07:48.408Z,98295.92
2023-03-29T16:10:16.698Z,98302.13
2023-03-29T16:12:44.783Z,98304.96
2023-03-29T16:15:20.538Z,98312.41
2023-03-29T16:17:48.818Z,98307.17
2023-03-29T16:20:20.179Z,98305.30
2023-03-29T16:22:49.234Z,98297.10
2023-03-29T16:25:22.839Z,98303.11
2023-03-29T16:27:55.639Z,98310.09
2023-03-29T16:30:24.946Z,98309.93
2023-03-29T16:32:53.232Z,98313.32
2023-03-29T16:35:33.270Z,98316.83
2023-03-29T16:38:01.630Z,98319.45
2023-03-29T16:40:29.826Z,98324.44
2023-03-29T16:42:58.073Z,98330.73
2023-03-29T16:45:28.694Z,98328.36
2023-03-29T16:47:57.319Z,98333.17
2023-03-29T16:50:25.754Z,98339.20
2023-03-29T16:52:54.239Z,98342.24
2023-03-29T16:55:22.975Z,98340.09
2023-03-29T16:57:51.214Z,98339.97
2023-03-29T17:00:20.452Z,98340.83
2023-03-29T17:02:51.762Z,98341.66
2023-03-29T17:05:20.123Z,98346.69
2023-03-29T17:07:48.253Z,98347.55
2023-03-29T17:10:16.641Z,98351.79
2023-03-29T17:12:45.092Z,98352.30
2023-03-29T17:15:13.215Z,98356.49
2023-03-29T17:17:41.661Z,98358.71
2023-03-29T17:20:14.422Z,98359.52
2023-03-29T17:22:42.646Z,98364.45
2023-03-29T17:25:10.938Z,98367.28
2023-03-29T17:27:39.052Z,98367.04
2023-03-29T17:30:10.621Z,98368.55
2023-03-29T17:32:40.231Z,98369.27
2023-03-29T17:35:13.630Z,98369.31
2023-03-29T17:37:42.666Z,98369.88
2023-03-29T17:40:14.043Z,98375.02
2023-03-29T17:42:43.991Z,98377.11
2023-03-29T17:45:12.136Z,98375.27
2023-03-29T17:47:40.957Z,98379.62
2023-03-29T17:50:11.497Z,98383.48
2023-03-29T17:52:40.178Z,98382.88
2023-03-29T17:55:11.435Z,98382.98
2023-03-29T17:57:40.836Z,98388.92
2023-03-29T18:00:10.765Z,98391.66
2023-03-29T18:02:39.904Z,98392.86
2023-03-29T18:05:09.646Z,98399.02
2023-03-29T18:07:38.412Z,98399.77
2023-03-29T18:10:07.850Z,98402.13
2023-03-29T18:12:36.762Z,98403.96
2023-03-29T18:15:06.395Z,98403.03
2023-03-29T18:17:36.550Z,98405.94
2023-03-29T18:20:11.837Z,98404.48
2023-03-29T18:22:43.922Z,98406.36
2023-03-29T18:25:12.160Z,98411.11
2023-03-29T18:27:41.019Z,98408.71
2023-03-29T18:30:09.929Z,98407.14
2023-03-29T18:32:38.325Z,98411.98
2023-03-29T18:35:10.258Z,98412.04
2023-03-29T18:37:38.956Z,98416.61
2023-03-29T18:40:08.396Z,98423.23
2023-03-29T18:42:36.739Z,98423.21
2023-03-29T18:45:05.811Z,98425.98
2023-03-29T18:47:33.913Z,98431.52
2023-03-29T18:50:02.972Z,98433.05
2023-03-29T18:52:31.224Z,98440.23
2023-03-29T18:54:59.322Z,98434.11
2023-03-29T18:57:28.139Z,98437.70
2023-03-29T18:59:56.686Z,98438.27
2023-03-29T19:02:27.373Z,98434.23
2023-03-29T19:04:57.286Z,98430.52
2023-03-29T19:07:25.641Z,98428.80
2023-03-29T19:09:53.698Z,98428.23
2023-03-29T19:12:24.627Z,98437.70
2023-03-29T19:14:52.859Z,98440.41
2023-03-29T19:17:21.802Z,98442.87
2023-03-29T19:19:49.956Z,98443.94
2023-03-29T19:22:18.142Z,98447.89
2023-03-29T19:24:46.402Z,98447.54
2023-03-29T19:27:14.796Z,98445.50
2023-03-29T19:29:42.854Z,98448.86
2023-03-29T19:32:11.192Z,98447.23
2023-03-29T19:34:39.287Z,98444.50
2023-03-29T19:37:07.336Z,98442.63
2023-03-29T19:39:36.186Z,98438.61
2023-03-29T19:42:04.422Z,98435.27
2023-03-29T19:44:33.822Z,98432.92
2023-03-29T19:47:02.165Z,98430.84
2023-03-29T19:49:30.680Z,98425.91
2023-03-29T19:51:59.272Z,98424.64
2023-03-29T19:54:27.334Z,98423.36
2023-03-29T19:56:57.416Z,98421.73
2023-03-29T19:59:27.223Z,98426.20
2023-03-29T20:01:57.102Z,98428.27
2023-03-29T20:04:25.499Z,98431.41
2023-03-29T20:06:53.617Z,98434.61
2023-03-29T20:09:22.000Z,98437.72
2023-03-29T20:11:50.682Z,98441.35
2023-03-29T20:14:18.954Z,98434.39
2023-03-29T20:16:47.110Z,98433.88
2023-03-29T20:19:17.710Z,98437.59
2023-03-29T20:21:45.907Z,98434.80
2023-03-29T20:24:14.331Z,98430.85
2023-03-29T20:26:42.503Z,98429.38
2023-03-29T20:29:10.541Z,98426.36
2023-03-29T20:31:38.677Z,98427.90
2023-03-29T20:34:07.267Z,98428.95
2023-03-29T20:36:35.827Z,98429.57
2023-03-29T20:39:04.990Z,98422.63
2023-03-29T20:41:33.982Z,98422.63
2023-03-29T20:44:03.026Z,98418.10
2023-03-29T20:46:35.045Z,98416.82
2023-03-29T20:49:07.402Z,98413.92
2023-03-29T20:51:36.331Z,98411.75
2023-03-29T20:54:07.844Z,98413.36
2023-03-29T20:56:39.827Z,98415.45
2023-03-29T20:59:10.869Z,98411.77
2023-03-29T21:01:41.194Z,98416.16
2023-03-29T21:04:11.065Z,98415.42
2023-03-29T21:06:39.803Z,98415.39
2023-03-29T21:09:08.705Z,98415.81
2023-03-29T21:11:36.935Z,98415.23
2023-03-29T21:14:04.992Z,98416.73
2023-03-29T21:16:33.296Z,98420.48
2023-03-29T21:19:01.593Z,98419.50
2023-03-29T21:21:29.754Z,98420.64
2023-03-29T21:23:57.902Z,98423.53
2023-03-29T21:26:26.580Z,98427.71
2023-03-29T21:28:54.779Z,98429.13
2023-03-29T21:31:22.895Z,98432.89
2023-03-29T21:33:53.031Z,98436.80
2023-03-29T21:36:21.143Z,98437.54
2023-03-29T21:38:50.317Z,98441.30
2023-03-29T21:41:19.200Z,98440.12
2023-03-29T21:43:47.371Z,98439.67
2023-03-29T21:46:15.726Z,98437.79
2023-03-29T21:48:44.052Z,98438.88
2023-03-29T21:51:12.197Z,98436.11
2023-03-29T21:53:40.481Z,98436.80
2023-03-29T21:56:12.209Z,98437.54
2023-03-29T21:58:40.613Z,98433.78
2023-03-29T22:01:10.522Z,98434.42
2023-03-29T22:03:39.009Z,98439.35
2023-03-29T22:06:09.512Z,98443.55
2023-03-29T22:08:40.527Z,98446.95
2023-03-29T22:11:14.074Z,98449.29
2023-03-29T22:13:43.496Z,98445.85
2023-03-29T22:16:18.360Z,98445.65
2023-03-29T22:18:49.757Z,98444.30
2023-03-29T22:21:25.233Z,98444.56
2023-03-29T22:23:56.064Z,98445.67
2023-03-29T22:26:27.847Z,98442.73
2023-03-29T22:28:57.486Z,98442.04
2023-03-29T22:31:27.400Z,98440.31
2023-03-29T22:33:56.498Z,98436.95
2023-03-29T22:36:27.821Z,98436.17
2023-03-29T22:38:56.367Z,98441.10
2023-03-29T22:41:27.740Z,98441.38
2023-03-29T22:43:58.093Z,98437.41
2023-03-29T22:46:27.346Z,98433.22
2023-03-29T22:48:55.878Z,98435.11
2023-03-29T22:51:24.014Z,98439.63
2023-03-29T22:53:52.082Z,98439.79
2023-03-29T22:56:20.552Z,98442.20
2023-03-29T22:58:48.654Z,98439.83
2023-03-29T23:01:17.006Z,98433.11
2023-03-29T23:03:45.625Z,98431.87
2023-03-29T23:06:13.711Z,98437.18
2023-03-29T23:08:41.900Z,98439.75
2023-03-29T23:11:10.221Z,98440.15
2023-03-29T23:13:38.887Z,98443.96
2023-03-29T23:16:07.882Z,98448.79
2023-03-29T23:18:37.660Z,98451.16
2023-03-29T23:21:09.066Z,98451.58
2023-03-29T23:23:37.590Z,98450.37
2023-03-29T23:26:06.589Z,98450.20
2023-03-29T23:28:35.448Z,98443.48
2023-03-29T23:31:10.378Z,98442.83
2023-03-29T23:33:41.323Z,98444.48
2023-03-29T23:36:12.817Z,98443.10
2023-03-29T23:38:42.483Z,98445.52
2023-03-29T23:41:12.946Z,98450.07
2023-03-29T23:43:43.468Z,98453.89
2023-03-29T23:46:15.283Z,98454.11
2023-03-29T23:48:49.220Z,98452.99
2023-03-29T23:51:23.045Z,98450.83
2023-03-29T23:53:52.014Z,98454.23
2023-03-29T23:56:21.736Z,98458.05
2023-03-29T23:58:50.169Z,98452.75
